createdAt,value
2018-12-14T00:01:29.927Z,1.11
2018-12-14T00:03:57.478Z,1.11
2018-12-14T00:06:25.025Z,1.04
2018-12-14T00:08:53.011Z,0.97
2018-12-14T00:11:20.534Z,0.94
2018-12-14T00:13:48.095Z,0.91
2018-12-14T00:16:15.712Z,0.87
2018-12-14T00:18:43.774Z,0.83
2018-12-14T00:21:11.327Z,0.80
2018-12-14T00:23:39.462Z,0.76
2018-12-14T00:26:07.004Z,0.77
2018-12-14T00:28:34.996Z,0.82
2018-12-14T00:31:02.743Z,0.89
2018-12-14T00:33:30.319Z,1.00
2018-12-14T00:35:58.217Z,1.08
2018-12-14T00:38:25.814Z,1.15
2018-12-14T00:40:53.346Z,1.21
2018-12-14T00:43:24.607Z,1.30
2018-12-14T00:45:52.615Z,1.37
2018-12-14T00:48:20.140Z,1.44
2018-12-14T00:50:47.796Z,1.48
2018-12-14T00:53:15.405Z,1.54
2018-12-14T00:55:44.214Z,1.58
2018-12-14T00:58:11.738Z,1.62
2018-12-14T01:00:46.134Z,1.66
2018-12-14T01:03:13.647Z,1.72
2018-12-14T01:05:41.199Z,1.76
2018-12-14T01:08:08.771Z,1.79
2018-12-14T01:10:36.663Z,1.81
2018-12-14T01:13:04.222Z,1.85
2018-12-14T01:15:31.795Z,1.88
2018-12-14T01:17:59.306Z,1.89
2018-12-14T01:20:27.248Z,1.92
2018-12-14T01:22:54.776Z,1.94
2018-12-14T01:25:22.350Z,1.95
2018-12-14T01:27:49.967Z,1.95
2018-12-14T01:30:17.830Z,1.96
2018-12-14T01:32:45.387Z,1.98
2018-12-14T01:35:12.951Z,2.00
2018-12-14T01:37:40.786Z,2.01
2018-12-14T01:40:08.360Z,2.00
2018-12-14T01:42:35.895Z,2.00
2018-12-14T01:45:03.469Z,2.02
2018-12-14T01:47:32.185Z,2.04
2018-12-14T01:49:59.751Z,2.05
2018-12-14T01:52:27.618Z,2.07
2018-12-14T01:54:55.296Z,2.07
2018-12-14T01:57:23.467Z,2.09
2018-12-14T01:59:51.019Z,2.10
2018-12-14T02:02:18.568Z,2.12
2018-12-14T02:04:46.407Z,2.11
2018-12-14T02:07:13.967Z,2.11
2018-12-14T02:09:41.514Z,2.10
2018-12-14T02:12:11.493Z,2.10
2018-12-14T02:14:39.033Z,2.10
2018-12-14T02:17:06.605Z,2.09
2018-12-14T02:19:34.154Z,2.08
2018-12-14T02:22:01.715Z,2.10
2018-12-14T02:24:29.531Z,2.11
2018-12-14T02:26:57.146Z,2.11
2018-12-14T02:29:24.683Z,2.10
2018-12-14T02:31:52.213Z,2.09
2018-12-14T02:34:20.207Z,2.09
2018-12-14T02:36:47.724Z,2.10
2018-12-14T02:39:15.246Z,2.11
2018-12-14T02:41:42.862Z,2.10
2018-12-14T02:44:10.714Z,2.09
2018-12-14T02:46:38.279Z,2.09
2018-12-14T02:49:05.823Z,2.07
2018-12-14T02:51:33.406Z,2.09
2018-12-14T02:54:01.418Z,2.09
2018-12-14T02:56:28.989Z,2.09
2018-12-14T02:58:56.519Z,2.09
2018-12-14T03:01:24.753Z,2.11
2018-12-14T03:03:52.664Z,2.10
2018-12-14T03:06:21.504Z,2.10
2018-12-14T03:08:49.589Z,2.10
2018-12-14T03:11:17.095Z,2.12
2018-12-14T03:13:45.031Z,2.11
2018-12-14T03:16:12.591Z,2.12
2018-12-14T03:18:40.111Z,2.12
2018-12-14T03:21:07.963Z,2.14
2018-12-14T03:23:35.489Z,2.15
2018-12-14T03:26:03.055Z,2.13
2018-12-14T03:28:31.577Z,2.14
2018-12-14T03:30:59.586Z,2.13
2018-12-14T03:33:27.125Z,2.13
2018-12-14T03:35:54.707Z,2.13
2018-12-14T03:38:23.104Z,2.13
2018-12-14T03:40:50.669Z,2.15
2018-12-14T03:43:18.230Z,2.14
2018-12-14T03:45:45.773Z,2.14
2018-12-14T03:48:13.683Z,2.14
2018-12-14T03:50:41.198Z,2.13
2018-12-14T03:53:08.739Z,2.12
2018-12-14T03:55:36.306Z,2.13
2018-12-14T03:58:04.421Z,2.13
2018-12-14T04:00:32.113Z,2.12
2018-12-14T04:02:59.879Z,2.13
2018-12-14T04:05:27.856Z,2.14
2018-12-14T04:07:55.375Z,2.15
2018-12-14T04:10:24.179Z,2.14
2018-12-14T04:12:51.978Z,2.13
2018-12-14T04:15:19.558Z,2.12
2018-12-14T04:17:47.123Z,2.11
2018-12-14T04:20:15.077Z,2.10
2018-12-14T04:22:42.636Z,2.09
2018-12-14T04:25:10.166Z,2.09
2018-12-14T04:27:38.096Z,2.09
2018-12-14T04:30:05.623Z,2.07
2018-12-14T04:32:33.142Z,2.09
2018-12-14T04:35:00.730Z,2.10
2018-12-14T04:37:28.479Z,2.10
2018-12-14T04:39:56.014Z,2.12
2018-12-14T04:42:24.099Z,2.12
2018-12-14T04:44:51.636Z,2.12
2018-12-14T04:47:19.255Z,2.12
2018-12-14T04:49:47.027Z,2.12
2018-12-14T04:52:14.912Z,2.11
2018-12-14T04:54:42.474Z,2.11
2018-12-14T04:57:10.057Z,2.12
2018-12-14T04:59:37.610Z,2.11
2018-12-14T05:02:05.518Z,2.13
2018-12-14T05:04:33.030Z,2.12
2018-12-14T05:07:00.567Z,2.14
2018-12-14T05:09:28.107Z,2.13
2018-12-14T05:11:56.004Z,2.13
2018-12-14T05:14:23.713Z,2.11
2018-12-14T05:16:51.271Z,2.11
2018-12-14T05:19:18.806Z,2.10
2018-12-14T05:21:47.675Z,2.09
2018-12-14T05:24:15.873Z,2.09
2018-12-14T05:26:43.424Z,2.10
2018-12-14T05:29:11.342Z,2.11
2018-12-14T05:31:38.951Z,2.10
2018-12-14T05:34:06.495Z,2.11
2018-12-14T05:36:34.006Z,2.10
2018-12-14T05:39:01.551Z,2.11
2018-12-14T05:41:29.578Z,2.10
2018-12-14T05:43:57.324Z,2.09
2018-12-14T05:46:24.912Z,2.08
2018-12-14T05:48:52.447Z,2.08
2018-12-14T05:51:20.440Z,2.09
2018-12-14T05:53:48.011Z,2.09
2018-12-14T05:56:15.520Z,2.09
2018-12-14T05:58:45.126Z,2.09
2018-12-14T06:01:13.981Z,2.09
2018-12-14T06:03:41.486Z,2.09
2018-12-14T06:06:09.495Z,2.09
2018-12-14T06:08:37.654Z,2.08
2018-12-14T06:11:06.035Z,2.10
2018-12-14T06:13:34.617Z,2.09
2018-12-14T06:16:02.225Z,2.10
2018-12-14T06:18:29.747Z,2.11
2018-12-14T06:20:57.655Z,2.11
2018-12-14T06:23:25.241Z,2.11
2018-12-14T06:25:52.786Z,2.11
2018-12-14T06:28:20.658Z,2.11
2018-12-14T06:30:48.698Z,2.11
2018-12-14T06:33:16.291Z,2.11
2018-12-14T06:35:44.235Z,2.10
2018-12-14T06:38:12.551Z,2.10
2018-12-14T06:40:40.321Z,2.11
2018-12-14T06:43:15.463Z,2.10
2018-12-14T06:45:39.815Z,2.10
2018-12-14T06:48:07.369Z,2.09
2018-12-14T06:50:35.350Z,2.09
2018-12-14T06:53:03.211Z,2.09
2018-12-14T06:55:31.321Z,2.08
2018-12-14T06:57:59.200Z,2.06
2018-12-14T07:00:26.751Z,2.06
2018-12-14T07:02:54.314Z,2.06
2018-12-14T07:05:22.311Z,2.05
2018-12-14T07:07:50.751Z,2.04
2018-12-14T07:10:18.286Z,2.05
2018-12-14T07:12:47.429Z,2.05
2018-12-14T07:15:15.652Z,2.05
2018-12-14T07:17:43.359Z,2.05
2018-12-14T07:20:11.279Z,2.05
2018-12-14T07:22:39.851Z,2.07
2018-12-14T07:25:07.389Z,2.09
2018-12-14T07:27:37.947Z,2.08
2018-12-14T07:30:05.588Z,2.09
2018-12-14T07:32:34.143Z,2.10
2018-12-14T07:35:05.727Z,2.12
2018-12-14T07:37:33.287Z,2.13
2018-12-14T07:40:00.822Z,2.12
2018-12-14T07:42:28.796Z,2.12
2018-12-14T07:44:56.410Z,2.12
2018-12-14T07:47:23.992Z,2.14
2018-12-14T07:49:51.898Z,2.17
2018-12-14T07:52:19.465Z,2.16
2018-12-14T07:54:47.827Z,2.17
2018-12-14T07:57:17.714Z,2.19
2018-12-14T07:59:46.867Z,2.21
2018-12-14T08:02:14.448Z,2.22
2018-12-14T08:04:42.711Z,2.24
2018-12-14T08:07:10.619Z,2.25
2018-12-14T08:09:39.175Z,2.26
2018-12-14T08:12:08.193Z,2.26
2018-12-14T08:14:35.714Z,2.26
2018-12-14T08:17:03.349Z,2.28
2018-12-14T08:19:31.358Z,2.29
2018-12-14T08:21:58.887Z,2.29
2018-12-14T08:24:26.515Z,2.29
2018-12-14T08:26:54.450Z,2.30
2018-12-14T08:29:22.003Z,2.30
2018-12-14T08:31:49.570Z,2.29
2018-12-14T08:34:18.074Z,2.29
2018-12-14T08:36:45.699Z,2.28
2018-12-14T08:39:13.302Z,2.29
2018-12-14T08:41:41.146Z,2.31
2018-12-14T08:44:08.696Z,2.32
2018-12-14T08:46:37.207Z,2.33
2018-12-14T08:49:05.046Z,2.33
2018-12-14T08:51:32.570Z,2.34
2018-12-14T08:54:00.082Z,2.34
2018-12-14T08:56:28.039Z,2.36
2018-12-14T08:58:55.554Z,2.37
2018-12-14T09:01:23.140Z,2.39
2018-12-14T09:03:51.041Z,2.39
2018-12-14T09:06:18.579Z,2.42
2018-12-14T09:08:47.617Z,2.43
2018-12-14T09:11:18.494Z,2.47
2018-12-14T09:13:48.064Z,2.47
2018-12-14T09:16:15.701Z,2.47
2018-12-14T09:18:43.658Z,2.50
2018-12-14T09:21:11.228Z,2.51
2018-12-14T09:23:38.794Z,2.52
2018-12-14T09:26:06.781Z,2.55
2018-12-14T09:28:36.765Z,2.57
2018-12-14T09:31:05.390Z,2.59
2018-12-14T09:33:33.297Z,2.60
2018-12-14T09:36:01.379Z,2.62
2018-12-14T09:38:28.934Z,2.64
2018-12-14T09:40:56.939Z,2.67
2018-12-14T09:43:24.490Z,2.69
2018-12-14T09:45:52.603Z,2.71
2018-12-14T09:48:20.629Z,2.72
2018-12-14T09:50:48.359Z,2.74
2018-12-14T09:53:17.222Z,2.75
2018-12-14T09:55:47.109Z,2.76
2018-12-14T09:58:14.675Z,2.78
2018-12-14T10:00:42.236Z,2.81
2018-12-14T10:03:10.163Z,2.83
2018-12-14T10:05:37.766Z,2.86
2018-12-14T10:08:05.328Z,2.87
2018-12-14T10:10:33.266Z,2.88
2018-12-14T10:13:00.834Z,2.90
2018-12-14T10:15:28.487Z,2.90
2018-12-14T10:17:56.433Z,2.94
2018-12-14T10:20:24.024Z,2.94
2018-12-14T10:22:51.604Z,2.96
2018-12-14T10:25:19.466Z,3.00
2018-12-14T10:27:48.691Z,3.04
2018-12-14T10:30:16.256Z,3.08
2018-12-14T10:32:44.259Z,3.10
2018-12-14T10:35:12.220Z,3.15
2018-12-14T10:37:39.780Z,3.18
2018-12-14T10:40:07.335Z,3.20
2018-12-14T10:42:34.874Z,3.22
2018-12-14T10:45:06.779Z,3.25
2018-12-14T10:47:36.170Z,3.28
2018-12-14T10:50:03.726Z,3.30
2018-12-14T10:52:31.615Z,3.30
2018-12-14T10:54:59.215Z,3.30
2018-12-14T10:57:27.462Z,3.31
2018-12-14T10:59:56.103Z,3.34
2018-12-14T11:02:23.770Z,3.36
2018-12-14T11:04:51.323Z,3.38
2018-12-14T11:07:19.379Z,3.41
2018-12-14T11:09:46.990Z,3.42
2018-12-14T11:12:15.147Z,3.43
2018-12-14T11:14:43.030Z,3.46
2018-12-14T11:17:10.636Z,3.46
2018-12-14T11:19:38.203Z,3.46
2018-12-14T11:22:06.875Z,3.45
2018-12-14T11:24:35.267Z,3.42
2018-12-14T11:27:02.823Z,3.40
2018-12-14T11:29:32.583Z,3.39
2018-12-14T11:32:00.130Z,3.38
2018-12-14T11:34:29.798Z,3.36
2018-12-14T11:36:57.766Z,3.34
2018-12-14T11:39:26.123Z,3.37
2018-12-14T11:41:53.845Z,3.39
2018-12-14T11:44:23.043Z,3.42
2018-12-14T11:46:50.616Z,3.43
2018-12-14T11:49:19.534Z,3.45
2018-12-14T11:51:47.791Z,3.45
2018-12-14T11:54:15.540Z,3.43
2018-12-14T11:56:43.239Z,3.45
2018-12-14T11:59:12.267Z,3.45
2018-12-14T12:01:40.829Z,3.43
2018-12-14T12:04:08.395Z,3.40
2018-12-14T12:06:40.658Z,3.38
2018-12-14T12:09:08.963Z,3.38
2018-12-14T12:11:37.081Z,3.37
2018-12-14T12:14:04.971Z,3.37
2018-12-14T12:16:32.494Z,3.37
2018-12-14T12:19:00.094Z,3.39
2018-12-14T12:21:28.336Z,3.41
2018-12-14T12:23:56.973Z,3.44
2018-12-14T12:26:24.565Z,3.45
2018-12-14T12:28:53.131Z,3.46
2018-12-14T12:31:21.434Z,3.45
2018-12-14T12:33:52.048Z,3.46
2018-12-14T12:36:19.948Z,3.44
2018-12-14T12:38:47.515Z,3.43
2018-12-14T12:41:15.759Z,3.40
2018-12-14T12:43:43.634Z,3.37
2018-12-14T12:46:12.651Z,3.35
2018-12-14T12:48:41.060Z,3.33
2018-12-14T12:51:09.599Z,3.31
2018-12-14T12:53:37.198Z,3.31
2018-12-14T12:56:05.771Z,3.31
2018-12-14T12:58:33.700Z,3.29
2018-12-14T13:01:01.273Z,3.28
2018-12-14T13:03:29.859Z,3.26
2018-12-14T13:05:58.339Z,3.23
2018-12-14T13:08:25.943Z,3.21
2018-12-14T13:10:54.109Z,3.20
2018-12-14T13:13:22.321Z,3.19
2018-12-14T13:15:51.364Z,3.18
2018-12-14T13:18:18.935Z,3.16
2018-12-14T13:20:46.905Z,3.13
2018-12-14T13:23:15.692Z,3.12
2018-12-14T13:25:43.671Z,3.10
2018-12-14T13:28:11.725Z,3.09
2018-12-14T13:30:40.651Z,3.08
2018-12-14T13:33:08.398Z,3.06
2018-12-14T13:35:36.440Z,3.05
2018-12-14T13:38:04.041Z,3.04
2018-12-14T13:40:31.581Z,3.03
2018-12-14T13:42:59.622Z,3.03
2018-12-14T13:45:27.188Z,3.03
2018-12-14T13:47:56.272Z,3.03
2018-12-14T13:50:25.665Z,3.02
2018-12-14T13:52:53.269Z,3.01
2018-12-14T13:55:20.831Z,3.00
2018-12-14T13:57:48.784Z,2.97
2018-12-14T14:00:17.976Z,2.96
2018-12-14T14:02:45.545Z,2.95
2018-12-14T14:05:13.420Z,2.92
2018-12-14T14:07:41.084Z,2.91
2018-12-14T14:10:08.706Z,2.91
2018-12-14T14:12:37.250Z,2.91
2018-12-14T14:15:05.576Z,2.90
2018-12-14T14:17:33.131Z,2.88
2018-12-14T14:20:01.571Z,2.87
2018-12-14T14:22:32.347Z,2.85
2018-12-14T14:25:00.064Z,2.84
2018-12-14T14:27:28.569Z,2.84
2018-12-14T14:29:57.819Z,2.83
2018-12-14T14:32:25.459Z,2.83
2018-12-14T14:34:54.199Z,2.81
2018-12-14T14:37:21.762Z,2.81
2018-12-14T14:39:51.107Z,2.82
2018-12-14T14:42:18.975Z,2.82
2018-12-14T14:44:46.511Z,2.82
2018-12-14T14:47:14.338Z,2.82
2018-12-14T14:49:43.967Z,2.80
2018-12-14T14:52:12.135Z,2.78
2018-12-14T14:54:39.943Z,2.76
2018-12-14T14:57:08.271Z,2.74
2018-12-14T14:59:35.852Z,2.74
2018-12-14T15:02:03.692Z,2.72
2018-12-14T15:04:31.655Z,2.71
2018-12-14T15:07:00.291Z,2.69
2018-12-14T15:09:27.902Z,2.67
2018-12-14T15:11:55.928Z,2.67
2018-12-14T15:14:24.168Z,2.65
2018-12-14T15:16:51.793Z,2.65
2018-12-14T15:19:20.590Z,2.63
2018-12-14T15:21:48.180Z,2.63
2018-12-14T15:24:15.759Z,2.62
2018-12-14T15:26:44.467Z,2.59
2018-12-14T15:29:12.156Z,2.58
2018-12-14T15:31:40.763Z,2.57
2018-12-14T15:34:14.198Z,2.57
2018-12-14T15:36:38.481Z,2.56
2018-12-14T15:39:07.015Z,2.55
2018-12-14T15:41:35.611Z,2.55
2018-12-14T15:44:03.212Z,2.54
2018-12-14T15:46:31.079Z,2.52
2018-12-14T15:48:58.681Z,2.51
2018-12-14T15:51:27.253Z,2.49
2018-12-14T15:53:55.347Z,2.49
2018-12-14T15:56:22.998Z,2.47
2018-12-14T15:58:51.258Z,2.48
2018-12-14T16:01:19.195Z,2.47
2018-12-14T16:03:47.471Z,2.46
2018-12-14T16:06:16.223Z,2.45
2018-12-14T16:08:44.221Z,2.43
2018-12-14T16:11:11.804Z,2.42
2018-12-14T16:13:39.407Z,2.41
2018-12-14T16:16:07.334Z,2.43
2018-12-14T16:18:35.781Z,2.43
2018-12-14T16:21:04.129Z,2.45
2018-12-14T16:23:34.083Z,2.44
2018-12-14T16:26:02.338Z,2.45
2018-12-14T16:28:30.046Z,2.44
2018-12-14T16:31:00.017Z,2.45
2018-12-14T16:33:27.553Z,2.44
2018-12-14T16:35:55.751Z,2.44
2018-12-14T16:38:26.770Z,2.44
2018-12-14T16:40:54.575Z,2.42
2018-12-14T16:43:23.325Z,2.42
2018-12-14T16:45:52.092Z,2.42
2018-12-14T16:48:19.696Z,2.40
2018-12-14T16:50:47.323Z,2.40
2018-12-14T16:53:15.384Z,2.40
2018-12-14T16:55:43.200Z,2.38
2018-12-14T16:58:11.066Z,2.36
2018-12-14T17:00:39.923Z,2.34
2018-12-14T17:03:09.340Z,2.34
2018-12-14T17:05:38.416Z,2.34
2018-12-14T17:08:08.274Z,2.35
2018-12-14T17:10:36.762Z,2.36
2018-12-14T17:13:06.109Z,2.37
2018-12-14T17:15:35.724Z,2.38
2018-12-14T17:18:04.733Z,2.38
2018-12-14T17:20:33.328Z,2.37
2018-12-14T17:23:05.255Z,2.38
2018-12-14T17:25:32.876Z,2.39
2018-12-14T17:28:00.427Z,2.37
2018-12-14T17:30:29.402Z,2.36
2018-12-14T17:32:56.971Z,2.33
2018-12-14T17:35:25.197Z,2.32
2018-12-14T17:37:53.295Z,2.32
2018-12-14T17:40:20.859Z,2.31
2018-12-14T17:42:48.479Z,2.30
2018-12-14T17:45:16.502Z,2.28
2018-12-14T17:47:44.099Z,2.25
2018-12-14T17:50:11.692Z,2.25
2018-12-14T17:52:40.747Z,2.23
2018-12-14T17:55:09.094Z,2.21
2018-12-14T17:57:36.691Z,2.21
2018-12-14T18:00:05.611Z,2.18
2018-12-14T18:02:33.203Z,2.17
2018-12-14T18:05:00.778Z,2.16
2018-12-14T18:07:29.718Z,2.15
2018-12-14T18:09:58.203Z,2.15
2018-12-14T18:12:25.791Z,2.14
2018-12-14T18:14:55.291Z,2.15
2018-12-14T18:17:23.458Z,2.15
2018-12-14T18:19:55.661Z,2.14
2018-12-14T18:22:24.608Z,2.13
2018-12-14T18:24:52.475Z,2.13
2018-12-14T18:27:20.778Z,2.13
2018-12-14T18:29:50.278Z,2.13
2018-12-14T18:32:21.479Z,2.14
2018-12-14T18:34:49.091Z,2.14
2018-12-14T18:37:18.095Z,2.15
2018-12-14T18:39:46.251Z,2.14
2018-12-14T18:42:14.546Z,2.14
2018-12-14T18:44:43.414Z,2.13
2018-12-14T18:47:11.895Z,2.14
2018-12-14T18:49:40.458Z,2.12
2018-12-14T18:52:08.477Z,2.12
2018-12-14T18:54:36.307Z,2.11
2018-12-14T18:57:04.494Z,2.10
2018-12-14T18:59:36.548Z,2.10
2018-12-14T19:02:04.147Z,2.09
2018-12-14T19:04:31.946Z,2.06
2018-12-14T19:07:00.654Z,2.05
2018-12-14T19:09:28.257Z,2.05
2018-12-14T19:11:56.528Z,2.03
2018-12-14T19:14:24.564Z,2.02
2018-12-14T19:16:53.503Z,2.02
2018-12-14T19:19:21.316Z,2.03
2018-12-14T19:25:36.660Z,2.05
2018-12-14T19:28:04.518Z,2.17
2018-12-14T19:30:32.655Z,2.21
2018-12-14T19:33:03.765Z,2.23
2018-12-14T19:35:34.553Z,2.22
2018-12-14T19:38:03.277Z,2.20
2018-12-14T19:40:30.811Z,2.18
2018-12-14T19:42:59.471Z,2.15
2018-12-14T19:45:27.056Z,2.12
2018-12-14T19:47:54.623Z,2.11
2018-12-14T19:50:22.589Z,2.08
2018-12-14T19:52:52.624Z,2.05
2018-12-14T19:57:55.882Z,2.00
2018-12-14T20:00:23.394Z,1.99
2018-12-14T20:02:50.941Z,1.98
2018-12-14T20:05:20.417Z,1.99
2018-12-14T20:07:48.915Z,1.97
2018-12-14T20:10:16.591Z,1.96
2018-12-14T20:12:44.475Z,1.96
2018-12-14T20:15:12.855Z,1.94
2018-12-14T20:17:40.384Z,1.95
2018-12-14T20:20:08.882Z,1.94
2018-12-14T20:22:36.603Z,1.94
2018-12-14T20:25:08.260Z,1.94
2018-12-14T20:27:36.170Z,1.95
2018-12-14T20:30:03.774Z,1.96
2018-12-14T20:32:33.658Z,1.93
2018-12-14T20:35:03.829Z,1.93
2018-12-14T20:37:31.383Z,1.93
2018-12-14T20:40:00.213Z,1.92
2018-12-14T20:42:28.895Z,1.91
2018-12-14T20:44:56.953Z,1.90
2018-12-14T20:47:24.508Z,1.90
2018-12-14T20:49:52.399Z,1.89
2018-12-14T20:52:20.109Z,1.87
2018-12-14T20:54:47.719Z,1.87
2018-12-14T20:57:15.608Z,1.87
2018-12-14T20:59:43.370Z,1.86
2018-12-14T21:02:13.221Z,1.86
2018-12-14T21:04:41.216Z,1.85
2018-12-14T21:07:09.415Z,1.84
2018-12-14T21:09:37.562Z,1.84
2018-12-14T21:12:07.338Z,1.84
2018-12-14T21:14:35.763Z,1.84
2018-12-14T21:17:04.191Z,1.83
2018-12-14T21:19:32.216Z,1.83
2018-12-14T21:21:59.759Z,1.81
2018-12-14T21:24:27.286Z,1.81
2018-12-14T21:26:55.292Z,1.80
2018-12-14T21:29:23.439Z,1.79
2018-12-14T21:31:51.987Z,1.79
2018-12-14T21:34:21.933Z,1.79
2018-12-14T21:36:49.490Z,1.79
2018-12-14T21:39:17.275Z,1.79
2018-12-14T21:41:45.729Z,1.79
2018-12-14T21:44:13.274Z,1.77
2018-12-14T21:46:43.797Z,1.78
2018-12-14T21:49:12.730Z,1.78
2018-12-14T21:51:40.565Z,1.76
2018-12-14T21:54:08.641Z,1.76
2018-12-14T21:56:37.497Z,1.75
2018-12-14T21:59:05.289Z,1.76
2018-12-14T22:01:33.290Z,1.77
2018-12-14T22:04:02.409Z,1.76
2018-12-14T22:06:30.247Z,1.77
2018-12-14T22:08:58.256Z,1.75
2018-12-14T22:11:26.502Z,1.77
2018-12-14T22:13:55.122Z,1.77
2018-12-14T22:16:24.400Z,1.78
2018-12-14T22:18:53.806Z,1.78
2018-12-14T22:21:21.610Z,1.78
2018-12-14T22:23:49.169Z,1.77
2018-12-14T22:26:17.350Z,1.77
2018-12-14T22:28:44.947Z,1.75
2018-12-14T22:31:12.563Z,1.75
2018-12-14T22:33:41.218Z,1.76
2018-12-14T22:38:42.605Z,1.77
2018-12-14T22:41:10.471Z,1.77
2018-12-14T22:43:38.937Z,1.75
2018-12-14T22:46:06.485Z,1.73
2018-12-14T22:48:34.589Z,1.75
2018-12-14T22:51:03.323Z,1.75
2018-12-14T22:53:30.893Z,1.75
2018-12-14T22:55:59.303Z,1.76
2018-12-14T22:58:28.679Z,1.75
2018-12-14T23:00:56.470Z,1.74
2018-12-14T23:03:24.583Z,1.75
2018-12-14T23:08:24.683Z,1.76
2018-12-14T23:10:52.486Z,1.83
2018-12-14T23:13:20.014Z,1.89
2018-12-14T23:15:47.592Z,1.92
2018-12-14T23:18:15.571Z,1.92
2018-12-14T23:20:43.983Z,1.92
2018-12-14T23:23:11.526Z,1.91
2018-12-14T23:25:39.114Z,1.91
2018-12-14T23:28:06.970Z,1.89
2018-12-14T23:30:34.492Z,1.87
2018-12-14T23:33:02.070Z,1.85
2018-12-14T23:35:29.963Z,1.86
2018-12-14T23:37:57.474Z,1.84
2018-12-14T23:40:26.675Z,1.82
2018-12-14T23:42:54.716Z,1.81
2018-12-14T23:45:22.240Z,1.82
2018-12-14T23:47:50.344Z,1.80
2018-12-14T23:50:18.209Z,1.80
2018-12-14T23:52:45.741Z,1.80
2018-12-14T23:55:13.288Z,1.79
2018-12-14T23:57:41.216Z,1.78
